Time;durP1;ratioP1;P1;durP2;ratioP2;P2;SDS_P1;SDS_P2;PMS_P1;PMS_P2;Temp;Humidity;BMP_temperature;BMP_pressure;BME280_temperature;BME280_humidity;BME280_pressure;Samples;Min_cycle;Max_cycle;Signal;HPM_P1;HPM_P2
2023/12/16 00:01:37;;;;;;;4.15;1.70;;;10.80;51.50;;;;;;5096396;28;20039;-78
2023/12/16 00:04:03;;;;;;;6.38;2.45;;;10.80;51.70;;;;;;5095965;28;20032;-77
2023/12/16 00:06:30;;;;;;;4.75;1.48;;;10.80;51.60;;;;;;5095544;28;20044;-78
2023/12/16 00:08:56;;;;;;;5.53;1.52;;;10.70;51.90;;;;;;5095953;28;20035;-79
2023/12/16 00:11:21;;;;;;;4.13;1.80;;;10.70;51.80;;;;;;5095307;28;20032;-79
2023/12/16 00:13:47;;;;;;;4.80;1.30;;;10.70;51.90;;;;;;5077204;28;20035;-77
2023/12/16 00:16:13;;;;;;;6.32;1.55;;;10.70;52.10;;;;;;5095142;28;20480;-79
2023/12/16 00:18:38;;;;;;;4.47;1.35;;;10.70;52.20;;;;;;5095218;28;20035;-78
2023/12/16 00:21:04;;;;;;;5.95;1.77;;;10.70;52.40;;;;;;5095498;28;20495;-79
2023/12/16 00:23:30;;;;;;;5.93;1.50;;;10.70;52.30;;;;;;5095783;28;20032;-78
2023/12/16 00:25:56;;;;;;;6.60;1.48;;;10.70;52.50;;;;;;5096006;28;20036;-79
2023/12/16 00:28:21;;;;;;;4.10;1.45;;;10.60;52.50;;;;;;5077181;28;20126;-79
2023/12/16 00:30:47;;;;;;;4.75;1.55;;;10.60;52.80;;;;;;5094967;28;20497;-77
2023/12/16 00:33:13;;;;;;;5.20;1.42;;;10.60;53.00;;;;;;5094887;28;20051;-79
2023/12/16 00:35:38;;;;;;;3.42;1.73;;;10.60;53.10;;;;;;5094995;28;20489;-78
2023/12/16 00:38:04;;;;;;;3.17;1.15;;;10.60;53.20;;;;;;5095313;28;20443;-77
2023/12/16 00:40:30;;;;;;;4.90;1.48;;;10.60;53.20;;;;;;5095262;28;20053;-78
2023/12/16 00:42:55;;;;;;;3.53;1.42;;;10.60;53.20;;;;;;5094830;28;20047;-77
2023/12/16 00:45:21;;;;;;;6.47;1.30;;;10.60;53.30;;;;;;5094649;28;20060;-77
2023/12/16 00:47:47;;;;;;;3.65;1.45;;;10.70;53.50;;;;;;5076418;28;20040;-78
2023/12/16 00:50:12;;;;;;;2.17;1.13;;;10.70;53.50;;;;;;5094604;28;20036;-79
2023/12/16 00:52:38;;;;;;;6.25;1.60;;;10.70;53.50;;;;;;5094422;28;20032;-77
2023/12/16 00:55:05;;;;;;;2.60;1.10;;;10.70;53.60;;;;;;5094585;28;20032;-78
2023/12/16 00:57:31;;;;;;;4.03;1.45;;;10.70;53.60;;;;;;5076368;28;20028;-77
2023/12/16 00:59:57;;;;;;;3.78;1.30;;;10.70;53.80;;;;;;5094781;28;20047;-77
2023/12/16 01:02:23;;;;;;;4.18;1.10;;;10.70;53.60;;;;;;5077317;28;20040;-78
2023/12/16 01:04:48;;;;;;;4.45;1.10;;;10.70;53.80;;;;;;5095459;28;20116;-78
2023/12/16 01:07:14;;;;;;;2.42;1.00;;;10.70;53.90;;;;;;5094508;28;20071;-77
2023/12/16 01:09:40;;;;;;;3.20;1.40;;;10.70;53.80;;;;;;5094619;28;20082;-76
2023/12/16 01:12:06;;;;;;;3.78;1.27;;;10.70;54.10;;;;;;5093946;28;20056;-76
2023/12/16 01:14:31;;;;;;;4.05;1.20;;;10.60;54.10;;;;;;5094115;28;20115;-79
2023/12/16 01:16:58;;;;;;;2.15;1.10;;;10.60;54.10;;;;;;5097031;28;20036;-77
2023/12/16 01:19:24;;;;;;;3.80;1.13;;;10.70;54.30;;;;;;5094291;28;20062;-77
2023/12/16 01:21:49;;;;;;;3.78;1.08;;;10.60;54.30;;;;;;5093691;28;20032;-78
2023/12/16 01:24:15;;;;;;;6.90;2.50;;;10.60;54.40;;;;;;5094151;28;20035;-76
2023/12/16 01:26:41;;;;;;;5.80;1.40;;;10.60;54.30;;;;;;5097825;28;20036;-79
2023/12/16 01:29:07;;;;;;;5.40;1.27;;;10.60;54.40;;;;;;5082162;28;20029;-77
2023/12/16 01:31:33;;;;;;;2.65;1.10;;;10.60;54.50;;;;;;5115859;28;20024;-79
2023/12/16 01:33:58;;;;;;;3.30;1.30;;;10.60;54.50;;;;;;5118681;28;20036;-77
2023/12/16 01:36:24;;;;;;;2.55;1.00;;;10.60;54.60;;;;;;5101339;28;20378;-77
2023/12/16 01:38:50;;;;;;;6.50;1.58;;;10.50;54.60;;;;;;5095942;28;20040;-76
2023/12/16 01:41:16;;;;;;;5.47;1.30;;;10.50;54.90;;;;;;5093921;28;20036;-77
2023/12/16 01:43:41;;;;;;;3.15;1.15;;;10.50;54.90;;;;;;5093462;28;20482;-79
2023/12/16 01:46:07;;;;;;;4.63;1.23;;;10.40;54.90;;;;;;5093374;28;20028;-78
2023/12/16 01:48:34;;;;;;;2.22;0.90;;;10.40;55.10;;;;;;5093136;28;20485;-77
2023/12/16 01:51:01;;;;;;;2.00;0.98;;;10.40;55.20;;;;;;5093749;28;20482;-77
2023/12/16 01:53:29;;;;;;;6.97;1.38;;;10.40;55.20;;;;;;5093980;28;20054;-79
2023/12/16 01:55:56;;;;;;;5.05;1.15;;;10.40;55.50;;;;;;5093657;28;20477;-77
2023/12/16 01:58:22;;;;;;;3.22;1.10;;;10.30;55.80;;;;;;5093073;28;20085;-78
2023/12/16 02:00:52;;;;;;;3.92;1.20;;;10.30;55.80;;;;;;5075307;28;20459;-76
2023/12/16 02:03:19;;;;;;;3.22;1.30;;;10.30;55.80;;;;;;5093238;28;20039;-75
2023/12/16 02:05:45;;;;;;;2.60;1.08;;;10.30;55.90;;;;;;5093209;28;20085;-77
2023/12/16 02:08:11;;;;;;;4.43;1.20;;;10.30;55.80;;;;;;5093043;28;20036;-78
2023/12/16 02:10:36;;;;;;;3.03;0.95;;;10.30;55.80;;;;;;5093008;28;20036;-76
2023/12/16 02:13:03;;;;;;;3.38;1.10;;;10.30;55.80;;;;;;5092855;28;20488;-76
2023/12/16 02:15:29;;;;;;;3.50;1.25;;;10.20;55.70;;;;;;5093519;28;20099;-78
2023/12/16 02:17:55;;;;;;;5.60;1.98;;;10.20;55.90;;;;;;5092875;28;20111;-77
2023/12/16 02:20:21;;;;;;;3.88;1.13;;;10.20;55.90;;;;;;5092866;28;20415;-78
2023/12/16 02:22:47;;;;;;;4.55;1.02;;;10.10;55.90;;;;;;5092779;28;20562;-76
2023/12/16 02:25:15;;;;;;;4.13;1.15;;;10.10;55.90;;;;;;5092926;28;20039;-78
2023/12/16 02:27:41;;;;;;;2.10;1.00;;;10.10;55.80;;;;;;5088351;28;20037;-77
2023/12/16 02:30:09;;;;;;;2.40;1.00;;;10.10;55.90;;;;;;5073234;28;20389;-75
2023/12/16 02:32:34;;;;;;;3.58;1.00;;;10.10;55.90;;;;;;5078707;28;20029;-77
2023/12/16 02:35:00;;;;;;;3.83;1.13;;;10.10;55.80;;;;;;5072217;28;20021;-78
2023/12/16 02:37:26;;;;;;;2.65;0.90;;;10.10;55.80;;;;;;5072377;28;20064;-77
2023/12/16 02:39:52;;;;;;;5.28;1.02;;;10.10;55.60;;;;;;5072364;28;20488;-78
2023/12/16 02:42:18;;;;;;;2.58;1.10;;;10.10;55.70;;;;;;5072253;28;20048;-76
2023/12/16 02:44:43;;;;;;;1.75;0.88;;;10.10;55.60;;;;;;5073074;28;20060;-76
2023/12/16 02:47:09;;;;;;;4.30;1.10;;;10.10;55.30;;;;;;5088072;28;20044;-76
2023/12/16 02:49:35;;;;;;;2.17;1.20;;;10.00;55.30;;;;;;5071266;28;20060;-76
2023/12/16 02:52:01;;;;;;;3.03;1.00;;;10.10;55.30;;;;;;5072716;28;20043;-76
2023/12/16 02:54:27;;;;;;;4.25;1.20;;;10.10;55.30;;;;;;5072385;28;20035;-78
2023/12/16 02:56:53;;;;;;;2.55;0.90;;;10.10;55.00;;;;;;5075707;28;20064;-78
2023/12/16 02:59:19;;;;;;;3.47;0.93;;;10.00;54.50;;;;;;5058651;28;20063;-78
2023/12/16 03:01:44;;;;;;;2.05;0.90;;;10.00;54.60;;;;;;5058568;28;20528;-78
2023/12/16 03:04:10;;;;;;;2.70;0.90;;;10.00;54.40;;;;;;5075939;28;20382;-78
2023/12/16 03:06:42;;;;;;;3.30;1.17;;;10.00;54.30;;;;;;5075972;28;20039;-76
2023/12/16 03:09:09;;;;;;;2.15;0.90;;;10.00;54.50;;;;;;5059507;28;20049;-75
2023/12/16 03:11:34;;;;;;;3.42;1.13;;;10.00;54.40;;;;;;5078959;28;20055;-78
2023/12/16 03:14:00;;;;;;;4.93;1.00;;;10.00;54.40;;;;;;5076682;28;20029;-76
2023/12/16 03:16:26;;;;;;;2.13;0.90;;;10.00;54.40;;;;;;5075794;28;20563;-76
2023/12/16 03:18:52;;;;;;;3.15;0.80;;;9.90;55.50;;;;;;5076041;28;20036;-77
2023/12/16 03:21:19;;;;;;;1.80;0.80;;;9.90;55.70;;;;;;5076010;28;20160;-77
2023/12/16 03:23:44;;;;;;;4.47;0.82;;;10.00;55.00;;;;;;5075849;28;20052;-77
2023/12/16 03:26:10;;;;;;;3.28;0.80;;;10.00;54.90;;;;;;5075659;28;20078;-76
2023/12/16 03:28:36;;;;;;;5.85;0.85;;;10.00;54.70;;;;;;5075774;28;20029;-76
2023/12/16 03:31:02;;;;;;;5.90;0.90;;;10.00;54.80;;;;;;5075710;28;20487;-78
2023/12/16 03:33:27;;;;;;;2.58;0.80;;;10.10;55.00;;;;;;5075628;28;20107;-77
2023/12/16 03:35:53;;;;;;;1.98;0.82;;;10.10;54.80;;;;;;5075351;28;20036;-77
2023/12/16 03:38:19;;;;;;;2.67;0.70;;;10.10;54.90;;;;;;5075970;28;20460;-77
2023/12/16 03:40:44;;;;;;;2.05;0.82;;;10.10;55.00;;;;;;5075664;28;20036;-77
2023/12/16 03:43:11;;;;;;;2.97;1.02;;;10.10;55.10;;;;;;5075574;28;20092;-77
2023/12/16 03:45:36;;;;;;;2.28;0.73;;;10.10;55.10;;;;;;5075602;28;20082;-76
2023/12/16 03:48:02;;;;;;;2.28;0.80;;;10.10;55.00;;;;;;5075691;28;20116;-77
2023/12/16 03:50:28;;;;;;;3.40;0.80;;;10.10;55.00;;;;;;5075402;28;20033;-77
2023/12/16 03:52:53;;;;;;;2.00;0.90;;;10.10;55.10;;;;;;5075187;28;20056;-77
2023/12/16 03:55:19;;;;;;;3.13;0.90;;;10.10;54.70;;;;;;5075345;28;20048;-77
2023/12/16 03:57:45;;;;;;;1.65;0.70;;;10.10;54.70;;;;;;5075308;28;20110;-76
2023/12/16 04:00:11;;;;;;;0.60;0.50;;;10.20;54.70;;;;;;5075248;28;20040;-77
2023/12/16 04:02:37;;;;;;;2.95;0.70;;;10.10;54.50;;;;;;5075084;28;20044;-76
2023/12/16 04:05:03;;;;;;;3.05;1.13;;;10.10;55.00;;;;;;5075086;28;20508;-75
2023/12/16 04:07:28;;;;;;;2.97;0.80;;;10.10;54.60;;;;;;5082865;28;20110;-76
2023/12/16 04:09:54;;;;;;;2.67;0.82;;;10.10;54.50;;;;;;5091923;28;20024;-77
2023/12/16 04:12:20;;;;;;;2.75;0.82;;;10.20;54.30;;;;;;5093111;28;20088;-77
2023/12/16 04:14:46;;;;;;;4.97;1.02;;;10.20;54.20;;;;;;5089230;28;20051;-76
2023/12/16 04:17:12;;;;;;;2.28;0.80;;;10.20;54.00;;;;;;5075679;28;20122;-76
2023/12/16 04:19:37;;;;;;;5.25;0.80;;;10.20;53.80;;;;;;5075096;28;20056;-75
2023/12/16 04:22:04;;;;;;;3.10;0.90;;;10.20;53.70;;;;;;5074549;28;20041;-77
2023/12/16 04:24:30;;;;;;;1.13;0.50;;;10.20;53.80;;;;;;5074602;28;20032;-75
2023/12/16 04:26:56;;;;;;;3.55;0.95;;;10.20;53.70;;;;;;5056613;28;20556;-76
2023/12/16 04:29:21;;;;;;;3.33;0.80;;;10.20;53.70;;;;;;5074160;28;20060;-77
2023/12/16 04:31:47;;;;;;;3.22;0.90;;;10.20;53.50;;;;;;5074551;28;20036;-77
2023/12/16 04:34:13;;;;;;;1.90;0.80;;;10.20;53.10;;;;;;5056421;28;20090;-76
2023/12/16 04:36:39;;;;;;;2.83;0.93;;;10.20;52.90;;;;;;5076965;28;20471;-77
2023/12/16 04:39:07;;;;;;;5.60;1.10;;;10.20;53.10;;;;;;5074558;28;20094;-76
2023/12/16 04:41:33;;;;;;;1.55;0.73;;;10.20;53.10;;;;;;5074017;28;20047;-76
2023/12/16 04:43:59;;;;;;;5.32;1.05;;;10.20;52.90;;;;;;5074393;28;20033;-76
2023/12/16 04:46:25;;;;;;;2.60;1.10;;;10.10;52.70;;;;;;5074485;28;20043;-76
2023/12/16 04:48:51;;;;;;;1.63;0.73;;;10.20;52.80;;;;;;5075414;28;20092;-76
2023/12/16 04:51:19;;;;;;;2.63;1.08;;;10.20;52.30;;;;;;5076702;28;20029;-76
2023/12/16 04:53:45;;;;;;;2.95;1.13;;;10.20;52.00;;;;;;5073862;28;20028;-77
2023/12/16 04:56:11;;;;;;;5.80;0.80;;;10.20;51.50;;;;;;5074138;28;20040;-74
2023/12/16 04:58:36;;;;;;;5.22;1.23;;;10.20;51.00;;;;;;5056112;28;20044;-76
2023/12/16 05:01:03;;;;;;;5.20;1.02;;;10.20;50.40;;;;;;5074974;28;20035;-77
2023/12/16 05:03:33;;;;;;;4.13;1.20;;;10.20;50.50;;;;;;5077477;28;20127;-78
2023/12/16 05:05:59;;;;;;;2.13;0.95;;;10.20;49.90;;;;;;5075207;28;20047;-76
2023/12/16 05:08:24;;;;;;;3.25;1.10;;;10.30;50.50;;;;;;5058291;28;20037;-77
2023/12/16 05:10:50;;;;;;;2.70;1.10;;;10.20;50.60;;;;;;5073790;28;20027;-76
2023/12/16 05:13:16;;;;;;;5.53;0.95;;;10.20;50.60;;;;;;5073559;28;20041;-79
2023/12/16 05:15:42;;;;;;;2.15;0.82;;;10.20;50.20;;;;;;5073351;28;20405;-76
2023/12/16 05:18:08;;;;;;;1.90;0.90;;;10.20;50.20;;;;;;5073561;28;20028;-78
2023/12/16 05:20:35;;;;;;;1.95;1.00;;;10.20;50.30;;;;;;5073198;28;20112;-76
2023/12/16 05:23:02;;;;;;;4.80;1.02;;;10.20;50.40;;;;;;5073247;28;20490;-77
2023/12/16 05:25:29;;;;;;;2.80;1.10;;;10.10;50.30;;;;;;5073412;28;20056;-76
2023/12/16 05:27:55;;;;;;;3.33;1.00;;;10.10;50.50;;;;;;5073718;28;20037;-78
2023/12/16 05:30:21;;;;;;;2.80;1.00;;;10.10;50.50;;;;;;5073886;28;20097;-76
2023/12/16 05:32:47;;;;;;;4.22;1.17;;;10.10;50.40;;;;;;5073859;28;20029;-76
2023/12/16 05:35:13;;;;;;;4.95;1.10;;;10.10;50.50;;;;;;5073396;28;20037;-77
2023/12/16 05:37:40;;;;;;;4.30;1.10;;;10.10;50.60;;;;;;5073312;28;20567;-76
2023/12/16 05:40:06;;;;;;;2.88;1.35;;;10.00;50.50;;;;;;5073264;28;20040;-77
2023/12/16 05:42:31;;;;;;;6.10;1.15;;;10.00;50.30;;;;;;5073617;28;20474;-76
2023/12/16 05:44:57;;;;;;;4.68;1.30;;;10.00;50.40;;;;;;5073004;28;20032;-78
2023/12/16 05:47:23;;;;;;;3.08;0.98;;;10.10;50.30;;;;;;5073147;28;20037;-77
2023/12/16 05:49:50;;;;;;;1.30;0.75;;;10.10;50.00;;;;;;5073318;28;20469;-77
2023/12/16 05:52:15;;;;;;;2.45;0.90;;;10.10;50.20;;;;;;5054947;28;20040;-78
2023/12/16 05:54:41;;;;;;;5.45;1.42;;;10.10;49.90;;;;;;5073132;28;20031;-77
2023/12/16 05:57:07;;;;;;;2.17;0.90;;;10.10;49.70;;;;;;5072967;28;20044;-77
2023/12/16 05:59:34;;;;;;;2.17;0.75;;;10.20;49.90;;;;;;5073163;28;20407;-77
2023/12/16 06:02:00;;;;;;;2.45;1.05;;;10.20;49.70;;;;;;5073632;28;20090;-77
2023/12/16 06:04:26;;;;;;;3.55;0.88;;;10.20;49.50;;;;;;5073485;28;20033;-77
2023/12/16 06:06:51;;;;;;;2.78;0.90;;;10.20;48.90;;;;;;5073024;28;20044;-76
2023/12/16 06:09:17;;;;;;;3.58;0.90;;;10.20;49.50;;;;;;5072432;28;20117;-78
2023/12/16 06:11:43;;;;;;;2.75;0.95;;;10.20;49.30;;;;;;5075619;28;20060;-75
2023/12/16 06:14:09;;;;;;;3.45;0.90;;;10.20;49.50;;;;;;5073447;28;20037;-76
2023/12/16 06:16:34;;;;;;;4.15;1.10;;;10.10;49.30;;;;;;5054759;28;20032;-77
2023/12/16 06:19:02;;;;;;;4.15;1.10;;;10.00;49.30;;;;;;5072916;28;20555;-77
2023/12/16 06:21:29;;;;;;;1.40;0.90;;;10.00;49.30;;;;;;5092363;28;20442;-76
2023/12/16 06:23:58;;;;;;;3.53;1.17;;;10.00;49.60;;;;;;5092981;28;20035;-78
2023/12/16 06:26:23;;;;;;;2.13;1.00;;;9.90;50.20;;;;;;5074475;28;20104;-78
2023/12/16 06:28:49;;;;;;;2.67;1.10;;;9.90;50.30;;;;;;5092546;28;20509;-77
2023/12/16 06:31:16;;;;;;;1.77;0.90;;;9.90;50.20;;;;;;5092500;28;20397;-78
2023/12/16 06:33:42;;;;;;;1.95;0.95;;;9.90;50.40;;;;;;5093389;28;20381;-78
2023/12/16 06:36:08;;;;;;;6.70;1.15;;;9.90;50.30;;;;;;5093692;28;20036;-78
2023/12/16 06:38:33;;;;;;;4.50;1.60;;;9.90;49.90;;;;;;5096318;28;20031;-76
2023/12/16 06:40:59;;;;;;;2.40;1.10;;;9.90;50.20;;;;;;5098619;28;20085;-77
2023/12/16 06:43:25;;;;;;;4.38;1.05;;;9.90;50.30;;;;;;5111523;28;20020;-77
2023/12/16 06:45:51;;;;;;;4.63;0.98;;;9.90;50.00;;;;;;5110313;28;20082;-77
2023/12/16 06:48:16;;;;;;;3.65;1.08;;;9.90;49.90;;;;;;5093220;28;20480;-78
2023/12/16 06:50:42;;;;;;;3.20;1.20;;;10.00;48.60;;;;;;5093726;28;20028;-78
2023/12/16 06:53:08;;;;;;;8.38;1.20;;;10.00;48.50;;;;;;5092456;28;20090;-77
2023/12/16 06:55:34;;;;;;;3.03;1.20;;;10.10;48.40;;;;;;5092373;28;20036;-77
2023/12/16 06:57:59;;;;;;;3.08;1.00;;;10.40;48.40;;;;;;5092770;28;20036;-76
2023/12/16 07:00:25;;;;;;;3.50;1.08;;;10.90;47.50;;;;;;5092224;28;20056;-79
2023/12/16 07:02:51;;;;;;;3.08;1.20;;;11.40;46.90;;;;;;5073990;28;20048;-78
2023/12/16 07:05:16;;;;;;;4.60;1.50;;;11.90;45.80;;;;;;5074182;28;20031;-77
2023/12/16 07:07:44;;;;;;;6.50;1.60;;;12.30;44.10;;;;;;5092327;28;20497;-78
2023/12/16 07:10:10;;;;;;;4.00;1.50;;;12.60;43.20;;;;;;5092387;28;20123;-77
2023/12/16 07:12:36;;;;;;;4.95;1.40;;;12.90;42.40;;;;;;5074461;28;20599;-79
2023/12/16 07:15:01;;;;;;;6.05;1.70;;;13.10;42.20;;;;;;5092282;28;20367;-78
2023/12/16 07:17:27;;;;;;;3.45;1.35;;;13.30;42.60;;;;;;5092381;28;20032;-77
2023/12/16 07:19:53;;;;;;;3.90;1.40;;;13.50;43.00;;;;;;5092843;28;20028;-80
2023/12/16 07:22:19;;;;;;;4.00;1.60;;;13.80;42.20;;;;;;5092984;28;20050;-79
2023/12/16 07:24:45;;;;;;;1.90;1.02;;;14.10;41.60;;;;;;5092279;28;20043;-77
2023/12/16 07:27:11;;;;;;;2.80;1.00;;;14.30;41.40;;;;;;5057806;28;20036;-77
2023/12/16 07:29:37;;;;;;;3.08;1.20;;;14.60;41.20;;;;;;5074643;28;20043;-77
2023/12/16 07:32:06;;;;;;;3.33;1.13;;;14.60;40.40;;;;;;5092563;28;20079;-78
2023/12/16 07:34:31;;;;;;;3.30;1.10;;;13.80;40.50;;;;;;5091989;28;20058;-76
2023/12/16 07:36:57;;;;;;;5.60;1.20;;;13.00;41.00;;;;;;5092231;28;20424;-77
2023/12/16 07:39:24;;;;;;;2.65;1.25;;;12.50;41.50;;;;;;5092299;28;20029;-77
2023/12/16 07:41:50;;;;;;;5.32;1.73;;;12.10;41.60;;;;;;5074085;28;20067;-79
2023/12/16 07:44:15;;;;;;;2.42;1.13;;;11.90;41.90;;;;;;5096869;28;20515;-77
2023/12/16 07:46:41;;;;;;;4.88;1.10;;;11.70;42.20;;;;;;5078343;28;20065;-78
2023/12/16 07:49:07;;;;;;;2.17;1.00;;;11.60;42.10;;;;;;5096874;28;20513;-75
2023/12/16 07:51:33;;;;;;;2.85;1.05;;;11.50;42.20;;;;;;5100522;28;20480;-77
2023/12/16 07:53:59;;;;;;;5.15;1.50;;;11.40;42.20;;;;;;5098539;28;20115;-78
2023/12/16 07:56:27;;;;;;;3.78;1.42;;;11.40;42.50;;;;;;5095391;28;20036;-78
2023/12/16 07:58:53;;;;;;;2.15;0.82;;;11.40;42.20;;;;;;5095529;28;20053;-77
2023/12/16 08:01:20;;;;;;;2.80;1.15;;;11.40;42.30;;;;;;5095372;28;20473;-76
2023/12/16 08:03:47;;;;;;;3.45;1.00;;;11.40;42.10;;;;;;5095674;28;20040;-81
2023/12/16 08:06:16;;;;;;;3.38;1.02;;;11.40;41.70;;;;;;5095678;28;20029;-77
2023/12/16 08:08:45;;;;;;;3.97;1.27;;;11.40;41.60;;;;;;5077093;28;20157;-71
2023/12/16 08:11:12;;;;;;;6.50;1.20;;;11.40;41.70;;;;;;5075804;28;20067;-70
2023/12/16 08:13:38;;;;;;;2.95;1.30;;;11.40;41.80;;;;;;5074787;28;20099;-71
2023/12/16 08:16:08;;;;;;;1.58;1.00;;;11.40;42.00;;;;;;5074740;28;20486;-70
2023/12/16 08:18:34;;;;;;;3.22;1.10;;;11.40;42.40;;;;;;5075281;28;20063;-71
2023/12/16 08:21:00;;;;;;;2.10;0.80;;;11.50;41.90;;;;;;5073388;28;20056;-70
2023/12/16 08:23:26;;;;;;;3.05;0.90;;;11.50;42.00;;;;;;5074570;28;20099;-71
2023/12/16 08:25:51;;;;;;;2.78;1.00;;;11.50;42.00;;;;;;5074192;28;20502;-69
2023/12/16 08:28:17;;;;;;;3.67;1.08;;;11.60;42.20;;;;;;5074476;28;20032;-69
2023/12/16 08:30:44;;;;;;;5.35;1.50;;;11.60;42.00;;;;;;5075107;28;20029;-70
2023/12/16 08:33:09;;;;;;;2.35;1.00;;;11.60;41.80;;;;;;5075292;28;20027;-71
2023/12/16 08:35:36;;;;;;;2.33;1.00;;;11.70;42.00;;;;;;5074238;28;20096;-71
2023/12/16 08:38:02;;;;;;;2.63;0.90;;;11.70;41.90;;;;;;5074447;28;20044;-71
2023/12/16 08:40:28;;;;;;;3.45;0.95;;;11.80;42.10;;;;;;5074083;28;20060;-71
2023/12/16 08:42:53;;;;;;;2.60;0.90;;;11.80;42.20;;;;;;5073867;28;20040;-71
2023/12/16 08:45:19;;;;;;;6.13;1.00;;;11.80;41.90;;;;;;5074202;28;20025;-69
2023/12/16 08:47:45;;;;;;;6.00;1.20;;;11.90;42.40;;;;;;5074536;28;20029;-70
2023/12/16 08:50:10;;;;;;;5.00;1.10;;;11.90;41.80;;;;;;5075781;28;20032;-73
2023/12/16 08:52:37;;;;;;;5.72;1.23;;;11.90;42.20;;;;;;5073723;28;20064;-71
2023/12/16 08:55:06;;;;;;;5.10;1.20;;;11.90;41.90;;;;;;5072788;28;20056;-72
2023/12/16 08:57:32;;;;;;;5.53;1.00;;;12.00;42.20;;;;;;5073427;28;20064;-71
2023/12/16 08:59:58;;;;;;;4.07;0.90;;;12.00;42.30;;;;;;5073473;28;20136;-70
2023/12/16 09:02:24;;;;;;;2.83;1.13;;;12.10;42.60;;;;;;5073696;28;20048;-71
2023/12/16 09:04:50;;;;;;;2.85;1.23;;;12.20;42.50;;;;;;5073719;28;20028;-70
2023/12/16 09:07:17;;;;;;;2.33;1.10;;;12.20;42.60;;;;;;5073477;28;20040;-72
2023/12/16 09:09:44;;;;;;;2.95;0.82;;;12.20;42.40;;;;;;5073492;28;20040;-72
2023/12/16 09:12:10;;;;;;;3.92;1.00;;;12.30;42.50;;;;;;5082709;28;20127;-72
2023/12/16 09:14:37;;;;;;;3.50;1.48;;;12.30;42.20;;;;;;5093426;28;20039;-72
2023/12/16 09:17:04;;;;;;;2.38;1.02;;;12.30;42.10;;;;;;5093038;28;20156;-72
2023/12/16 09:19:30;;;;;;;3.88;1.13;;;12.40;42.10;;;;;;5092871;28;20024;-72
2023/12/16 09:21:55;;;;;;;7.10;1.27;;;12.40;42.10;;;;;;5093014;28;20046;-71
2023/12/16 09:24:21;;;;;;;5.78;0.90;;;12.50;42.20;;;;;;5093239;28;20085;-72
2023/12/16 09:26:47;;;;;;;3.17;1.45;;;12.50;41.70;;;;;;5093154;28;20032;-73
2023/12/16 09:29:13;;;;;;;4.78;1.00;;;12.60;41.80;;;;;;5093003;28;20032;-72
2023/12/16 09:31:39;;;;;;;2.08;1.02;;;12.60;41.90;;;;;;5074508;28;20115;-73
2023/12/16 09:34:05;;;;;;;3.17;1.10;;;12.70;41.70;;;;;;5092913;28;20035;-74
2023/12/16 09:36:31;;;;;;;5.00;1.40;;;12.70;41.10;;;;;;5092639;28;20043;-71
2023/12/16 09:38:58;;;;;;;3.00;1.23;;;12.80;41.50;;;;;;5074526;28;20028;-72
2023/12/16 09:41:25;;;;;;;5.43;1.10;;;12.90;41.30;;;;;;5092768;28;20060;-73
2023/12/16 09:43:53;;;;;;;4.63;1.30;;;12.90;41.30;;;;;;5092848;28;20032;-73
2023/12/16 09:46:24;;;;;;;3.00;1.02;;;12.90;41.20;;;;;;5093129;28;20119;-72
2023/12/16 09:48:53;;;;;;;2.35;1.20;;;13.00;41.40;;;;;;5092582;28;20047;-73
2023/12/16 09:51:23;;;;;;;3.90;1.15;;;13.10;41.40;;;;;;5091603;28;20059;-72
2023/12/16 09:53:50;;;;;;;2.55;1.20;;;13.10;41.80;;;;;;5092683;28;20036;-72
2023/12/16 09:56:19;;;;;;;3.17;0.93;;;13.20;41.40;;;;;;5092631;28;20036;-71
2023/12/16 09:58:47;;;;;;;2.85;1.10;;;13.20;41.50;;;;;;5092480;28;20035;-71
2023/12/16 10:01:14;;;;;;;2.90;1.13;;;13.30;42.30;;;;;;5092675;28;20028;-71
2023/12/16 10:03:41;;;;;;;4.40;1.20;;;13.30;41.60;;;;;;5092724;28;20126;-71
2023/12/16 10:06:08;;;;;;;5.57;0.98;;;13.30;41.80;;;;;;5092365;28;20035;-71
2023/12/16 10:08:35;;;;;;;4.00;1.00;;;13.30;41.00;;;;;;5092655;28;20036;-72
2023/12/16 10:11:02;;;;;;;2.33;1.10;;;13.40;41.40;;;;;;5091996;28;20021;-71
2023/12/16 10:13:30;;;;;;;2.63;1.17;;;13.40;41.40;;;;;;5092106;28;20048;-71
2023/12/16 10:15:56;;;;;;;2.30;0.90;;;13.50;41.60;;;;;;5092602;28;20028;-70
2023/12/16 10:18:22;;;;;;;3.45;1.00;;;13.50;41.40;;;;;;5092560;28;20386;-71
2023/12/16 10:20:48;;;;;;;2.25;1.00;;;13.60;41.70;;;;;;5093326;28;20036;-71
2023/12/16 10:23:14;;;;;;;3.22;1.00;;;13.70;41.50;;;;;;5092477;28;20493;-71
2023/12/16 10:25:43;;;;;;;3.83;1.00;;;13.70;41.40;;;;;;5092384;28;20032;-70
2023/12/16 10:28:12;;;;;;;2.30;1.05;;;13.70;41.40;;;;;;5092203;28;20036;-71
2023/12/16 10:30:37;;;;;;;2.90;0.98;;;13.70;41.10;;;;;;5092223;28;20028;-71
2023/12/16 10:33:03;;;;;;;4.40;1.00;;;13.80;41.40;;;;;;5092123;28;20147;-71
2023/12/16 10:35:33;;;;;;;6.05;1.63;;;13.80;41.10;;;;;;5092094;28;20086;-71
2023/12/16 10:37:59;;;;;;;4.35;1.13;;;13.80;40.90;;;;;;5074008;28;20182;-70
2023/12/16 10:40:26;;;;;;;2.47;0.90;;;13.80;40.70;;;;;;5092603;28;20036;-72
2023/12/16 10:42:52;;;;;;;3.67;1.13;;;13.90;40.90;;;;;;5074695;28;20472;-71
2023/12/16 10:45:18;;;;;;;4.95;1.30;;;13.90;40.60;;;;;;5092502;28;20052;-72
2023/12/16 10:47:48;;;;;;;3.20;1.27;;;14.00;40.60;;;;;;5092464;28;20123;-72
2023/12/16 10:50:15;;;;;;;3.10;1.00;;;14.00;40.50;;;;;;5092329;28;20035;-70
2023/12/16 10:52:52;;;;;;;2.92;1.30;;;14.10;40.80;;;;;;5092005;28;20036;-71
2023/12/16 10:55:31;;;;;;;2.97;0.80;;;14.20;40.70;;;;;;5092524;28;20036;-71
2023/12/16 10:58:22;;;;;;;5.80;1.10;;;14.20;40.00;;;;;;5092147;28;20066;-72
2023/12/16 11:00:51;;;;;;;4.13;1.40;;;14.20;39.80;;;;;;5074246;28;20032;-72
2023/12/16 11:03:28;;;;;;;5.90;1.00;;;14.30;40.30;;;;;;5092292;28;20405;-71
2023/12/16 11:06:00;;;;;;;2.42;1.00;;;14.30;40.00;;;;;;5092110;28;20086;-72
2023/12/16 11:08:27;;;;;;;8.38;1.17;;;14.40;39.80;;;;;;5092529;28;20521;-72
2023/12/16 11:10:54;;;;;;;4.53;1.33;;;14.40;39.70;;;;;;5091674;28;20082;-70
2023/12/16 11:13:22;;;;;;;3.53;1.00;;;14.40;39.40;;;;;;5091907;28;20135;-70
2023/12/16 11:15:52;;;;;;;2.63;1.25;;;14.40;39.60;;;;;;5091885;28;20057;-72
2023/12/16 11:18:23;;;;;;;4.20;1.05;;;14.40;39.30;;;;;;5094649;28;20041;-72
2023/12/16 11:20:51;;;;;;;6.88;1.30;;;14.50;39.40;;;;;;5096949;28;20034;-71
2023/12/16 11:23:18;;;;;;;3.60;1.20;;;14.50;39.70;;;;;;5096128;28;20055;-70
2023/12/16 11:25:45;;;;;;;4.78;1.17;;;14.60;39.80;;;;;;5095487;28;20172;-71
2023/12/16 11:28:14;;;;;;;3.85;1.50;;;14.70;39.50;;;;;;5095795;28;20526;-71
2023/12/16 11:30:43;;;;;;;4.47;1.33;;;14.70;39.20;;;;;;5096113;28;20028;-71
2023/12/16 11:33:09;;;;;;;3.55;1.13;;;14.60;38.80;;;;;;5095580;28;20040;-72
2023/12/16 11:35:45;;;;;;;3.65;1.50;;;14.70;39.00;;;;;;5095522;28;20035;-71
2023/12/16 11:38:41;;;;;;;4.28;1.23;;;14.70;38.50;;;;;;5095535;28;20036;-72
2023/12/16 11:41:08;;;;;;;2.85;1.33;;;14.80;38.30;;;;;;5096002;28;20025;-73
2023/12/16 11:43:50;;;;;;;3.13;1.20;;;14.80;38.70;;;;;;5077355;28;20047;-72
2023/12/16 11:46:40;;;;;;;2.55;1.00;;;14.80;38.00;;;;;;5095354;28;20405;-71
2023/12/16 11:49:11;;;;;;;4.20;1.13;;;14.80;37.70;;;;;;5080691;28;20426;-71
2023/12/16 11:51:40;;;;;;;4.32;1.30;;;14.90;38.10;;;;;;5076893;28;20499;-72
2023/12/16 11:54:07;;;;;;;3.03;1.10;;;14.90;37.80;;;;;;5077285;28;20059;-70
2023/12/16 11:56:34;;;;;;;1.80;0.90;;;14.90;37.70;;;;;;5094952;28;20028;-71
2023/12/16 11:59:04;;;;;;;3.63;0.90;;;14.90;37.90;;;;;;5095644;28;20040;-71
2023/12/16 12:01:32;;;;;;;1.65;0.82;;;14.90;37.50;;;;;;5076787;28;20066;-71
2023/12/16 12:03:58;;;;;;;2.13;1.17;;;15.00;37.40;;;;;;5095152;28;20056;-70
2023/12/16 12:06:25;;;;;;;5.82;1.20;;;15.00;37.30;;;;;;5094806;28;20028;-72
2023/12/16 12:08:51;;;;;;;3.63;1.10;;;15.00;37.20;;;;;;5059818;28;20024;-71
2023/12/16 12:11:18;;;;;;;4.32;1.30;;;15.00;37.20;;;;;;5094788;28;20445;-71
2023/12/16 12:13:44;;;;;;;3.08;0.98;;;15.00;37.10;;;;;;5094950;28;20061;-72
2023/12/16 12:16:12;;;;;;;4.22;1.20;;;15.00;36.80;;;;;;5095480;28;20427;-69
2023/12/16 12:18:39;;;;;;;1.92;0.90;;;15.00;36.70;;;;;;5095179;28;20024;-71
2023/12/16 12:21:06;;;;;;;3.92;0.98;;;15.10;37.20;;;;;;5095178;28;20032;-71
2023/12/16 12:23:33;;;;;;;2.05;0.90;;;15.10;37.10;;;;;;5094862;28;20481;-71
2023/12/16 12:25:58;;;;;;;2.72;1.00;;;15.10;36.60;;;;;;5095125;28;20032;-74
2023/12/16 12:28:24;;;;;;;3.60;1.30;;;15.10;36.80;;;;;;5071769;28;20063;-72
2023/12/16 12:30:59;;;;;;;5.57;1.25;;;15.10;36.60;;;;;;5093155;28;20074;-71
2023/12/16 12:33:24;;;;;;;5.70;1.20;;;15.10;36.90;;;;;;5094782;28;20035;-70
2023/12/16 12:35:50;;;;;;;4.07;1.48;;;15.20;36.70;;;;;;5094389;28;20103;-72
2023/12/16 12:38:19;;;;;;;4.30;1.10;;;15.20;36.70;;;;;;5094604;28;20389;-70
2023/12/16 12:41:04;;;;;;;4.55;1.52;;;15.20;36.80;;;;;;5094078;28;20110;-73
2023/12/16 12:43:35;;;;;;;2.95;1.10;;;15.20;35.90;;;;;;5082473;28;20245;-70
2023/12/16 12:46:09;;;;;;;5.47;1.58;;;15.30;36.70;;;;;;5074245;28;20391;-71